^^
Saratoga-Weather Station Historical Data
Daily Summary for August 14, 2021 Units:  Metric    English   Both
Daily Weekly Monthly Yearly Custom
  High: Low: Average:
Temperature: 5.2 °C -0.2 °C 1.3 °C
Dew Point: 4.5 °C -0.7 °C 0.6 °C
Humidity: 97% 92% 96%
Wind Speed: 11.1km/h 0km/h 1.7km/h
Wind Gust: 14.5km/h - -
Wind- - SSW
Pressure: 1019.0 hPa 1014.2 hPa -
Precipitation: 8.9 mm    
Historical Graphs
 
 
Tabular Data for August 14, 2021
Time Temperature Dew Point Pressure Wind Wind Speed Wind Gust Humidity Rainfall Rate (Hourly) solar
00:04 5.2 °C 4.5 °C 1015.9 hPa West 3.2 km/h 12.9 km/h 95% 0.5 mm 0 W/m2
00:09 5.1 °C 4.4 °C 1016.3 hPa WNW 3.2 km/h 6.4 km/h 95% 0.5 mm 0 W/m2
00:14 5.1 °C 4.4 °C 1016.3 hPa WNW 3.2 km/h 12.9 km/h 95% 0.5 mm 0 W/m2
00:19 5 °C 4.3 °C 1016.3 hPa WNW 3.2 km/h 3.2 km/h 95% 0.5 mm 0 W/m2
00:24 5 °C 4.3 °C 1016.3 hPa WNW 3.2 km/h 8 km/h 95% 0.5 mm 0 W/m2
00:29 4.9 °C 4.2 °C 1016.3 hPa WNW 1.4 km/h 8 km/h 95% 0.5 mm 0 W/m2
00:34 4.9 °C 4.2 °C 1016.3 hPa West 3.2 km/h 4.8 km/h 95% 0.5 mm 0 W/m2
00:39 4.8 °C 4.1 °C 1016.3 hPa West 3.2 km/h 8 km/h 95% 0.5 mm 0 W/m2
00:44 4.8 °C 4.1 °C 1016.3 hPa West 6.4 km/h 6.4 km/h 95% 0.5 mm 0 W/m2
00:49 4.8 °C 4.1 °C 1016.3 hPa NW 3.2 km/h 9.7 km/h 95% 0.5 mm 0 W/m2
00:55 4.8 °C 4.1 °C 1016.3 hPa WNW 1.4 km/h 6.4 km/h 95% 0.5 mm 0 W/m2
01:00 4.7 °C 3.8 °C 1016.3 hPa West 3.2 km/h 8 km/h 94% 0.5 mm 0 W/m2
01:05 4.6 °C 3.7 °C 1016.3 hPa WNW 6.4 km/h 9.7 km/h 94% 0.5 mm 0 W/m2
01:10 4.4 °C 3.4 °C 1016.6 hPa WNW 3.2 km/h 12.9 km/h 93% 0.5 mm 0 W/m2
01:15 4.3 °C 3.3 °C 1016.6 hPa West 4.7 km/h 9.7 km/h 93% 0.5 mm 0 W/m2
01:20 4.1 °C 3.1 °C 1016.6 hPa NW 6.4 km/h 11.3 km/h 93% 0.5 mm 0 W/m2
01:25 4.1 °C 3.1 °C 1016.6 hPa WNW 4.7 km/h 9.7 km/h 93% 0.5 mm 0 W/m2
01:30 4 °C 3 °C 1016.3 hPa West 3.2 km/h 3.2 km/h 93% 0.2 mm 0 W/m2
01:35 3.9 °C 2.7 °C 1016.3 hPa WSW 4.7 km/h 8 km/h 92% 0.2 mm 0 W/m2
01:40 3.8 °C 2.8 °C 1016.6 hPa West 1.4 km/h 4.8 km/h 93% 0.2 mm 0 W/m2
01:45 3.8 °C 2.8 °C 1016.6 hPa WNW 6.4 km/h 9.7 km/h 93% 0.2 mm 0 W/m2
01:50 3.8 °C 2.8 °C 1016.3 hPa WNW 3.2 km/h 4.8 km/h 93% 0.2 mm 0 W/m2
01:55 3.7 °C 2.7 °C 1016.3 hPa West 8 km/h 8 km/h 93% 0.2 mm 0 W/m2
02:00 3.7 °C 2.7 °C 1016.3 hPa West 1.4 km/h 3.2 km/h 93% 0.0 mm 0 W/m2
02:05 3.7 °C 2.7 °C 1016.3 hPa West 3.2 km/h 6.4 km/h 93% 0.0 mm 0 W/m2
02:10 3.6 °C 2.6 °C 1016.6 hPa NW 6.4 km/h 6.4 km/h 93% 0.0 mm 0 W/m2
02:15 3.6 °C 2.6 °C 1016.3 hPa West 11.1 km/h 12.9 km/h 93% 0.0 mm 0 W/m2
02:21 3.6 °C 2.6 °C 1016.3 hPa West 4.7 km/h 11.3 km/h 93% 0.0 mm 0 W/m2
02:26 3.6 °C 2.4 °C 1016.3 hPa WNW 9.7 km/h 14.5 km/h 92% 0.0 mm 0 W/m2
02:31 3.6 °C 2.6 °C 1016.6 hPa West 9.7 km/h 12.9 km/h 93% 0.0 mm 0 W/m2
02:36 3.5 °C 2.3 °C 1016.6 hPa WNW 4.7 km/h 14.5 km/h 92% 0.0 mm 0 W/m2
02:41 3.5 °C 2.3 °C 1016.6 hPa WNW 1.4 km/h 12.9 km/h 92% 0.0 mm 0 W/m2
02:46 3.6 °C 2.4 °C 1016.6 hPa West 3.2 km/h 8 km/h 92% 0.0 mm 0 W/m2
02:51 3.6 °C 2.4 °C 1016.6 hPa WNW 3.2 km/h 12.9 km/h 92% 0.0 mm 0 W/m2
02:56 3.5 °C 2.3 °C 1016.9 hPa West 3.2 km/h 4.8 km/h 92% 0.0 mm 0 W/m2
03:01 3.5 °C 2.3 °C 1016.9 hPa WSW 6.4 km/h 9.7 km/h 92% 0.0 mm 0 W/m2
03:06 3.4 °C 2.4 °C 1016.9 hPa WSW 3.2 km/h 6.4 km/h 93% 0.0 mm 0 W/m2
03:11 3.4 °C 2.4 °C 1016.9 hPa West 1.4 km/h 6.4 km/h 93% 0.0 mm 0 W/m2
03:16 3.3 °C 2.3 °C 1016.9 hPa West 3.2 km/h 11.3 km/h 93% 0.2 mm 0 W/m2
03:26 3.2 °C 2.3 °C 1016.9 hPa WSW 3.2 km/h 11.3 km/h 94% 0.2 mm 0 W/m2
03:31 3.2 °C 2.2 °C 1016.9 hPa NW 1.4 km/h 6.4 km/h 93% 0.2 mm 0 W/m2
03:36 3.2 °C 2.3 °C 1016.9 hPa Calm   3.2 km/h 94% 0.2 mm 0 W/m2
03:41 3.1 °C 2.2 °C 1016.9 hPa Calm   4.8 km/h 94% 0.2 mm 0 W/m2
03:46 3.1 °C 2.2 °C 1016.9 hPa West 1.4 km/h 4.8 km/h 94% 0.2 mm 0 W/m2
03:51 3 °C 2.1 °C 1016.9 hPa West 1.4 km/h 3.2 km/h 94% 0.2 mm 0 W/m2
03:56 3 °C 2.1 °C 1016.9 hPa Calm   3.2 km/h 94% 0.2 mm 0 W/m2
04:01 2.9 °C 2 °C 1016.9 hPa Calm   4.8 km/h 94% 0.2 mm 0 W/m2
04:06 2.9 °C 2 °C 1016.9 hPa WSW 4.7 km/h 6.4 km/h 94% 0.2 mm 0 W/m2
04:11 2.9 °C 2 °C 1016.9 hPa West 3.2 km/h 4.8 km/h 94% 0.2 mm 0 W/m2
04:16 2.9 °C 2 °C 1016.9 hPa WSW 7.9 km/h 9.7 km/h 94% 0.0 mm 0 W/m2
04:21 3 °C 2.1 °C 1016.9 hPa West 4.7 km/h 4.8 km/h 94% 0.0 mm 0 W/m2
04:26 2.9 °C 2 °C 1016.9 hPa WSW 8 km/h 8 km/h 94% 0.0 mm 0 W/m2
04:31 2.9 °C 2 °C 1016.9 hPa WNW 3.2 km/h 6.4 km/h 94% 0.0 mm 0 W/m2
04:36 2.9 °C 2 °C 1016.9 hPa West 3.2 km/h 4.8 km/h 94% 0.0 mm 0 W/m2
04:41 2.9 °C 2 °C 1016.9 hPa WNW 1.4 km/h 6.4 km/h 94% 0.0 mm 0 W/m2
04:46 2.8 °C 1.9 °C 1016.9 hPa West 3.2 km/h 8 km/h 94% 0.0 mm 0 W/m2
04:51 2.9 °C 2 °C 1016.9 hPa WNW 3.2 km/h 4.8 km/h 94% 0.2 mm 0 W/m2
04:56 2.8 °C 1.9 °C 1017.3 hPa West 3.2 km/h 9.7 km/h 94% 0.2 mm 0 W/m2
05:01 2.8 °C 1.9 °C 1017.3 hPa WNW 4.7 km/h 11.3 km/h 94% 0.2 mm 0 W/m2
05:06 2.8 °C 1.9 °C 1017.3 hPa WNW 3.2 km/h 11.3 km/h 94% 0.5 mm 0 W/m2
05:11 2.8 °C 1.9 °C 1017.3 hPa WSW 11.1 km/h 11.3 km/h 94% 0.5 mm 0 W/m2
05:16 2.7 °C 1.8 °C 1016.9 hPa WSW 7.9 km/h 11.3 km/h 94% 0.5 mm 0 W/m2
05:21 2.7 °C 1.8 °C 1016.9 hPa NW 4.7 km/h 11.3 km/h 94% 0.5 mm 0 W/m2
05:26 2.6 °C 1.7 °C 1016.9 hPa WNW 3.2 km/h 4.8 km/h 94% 0.8 mm 0 W/m2
05:31 2.6 °C 1.7 °C 1016.9 hPa WSW 3.2 km/h 11.3 km/h 94% 0.8 mm 0 W/m2
05:36 2.6 °C 1.7 °C 1016.9 hPa WNW 4.7 km/h 4.8 km/h 94% 1.0 mm 0 W/m2
05:41 2.5 °C 1.6 °C 1016.9 hPa West 4.7 km/h 8 km/h 94% 1.3 mm 0 W/m2
05:46 2.4 °C 1.5 °C 1016.9 hPa West 9.7 km/h 11.3 km/h 94% 1.3 mm 0 W/m2
05:51 2.4 °C 1.5 °C 1016.9 hPa WNW 3.2 km/h 6.4 km/h 94% 1.3 mm 0 W/m2
05:56 2.4 °C 1.5 °C 1016.9 hPa West 3.2 km/h 6.4 km/h 94% 1.3 mm 0 W/m2
06:01 2.4 °C 1.5 °C 1016.9 hPa Calm   4.8 km/h 94% 1.5 mm 0 W/m2
06:06 2.4 °C 1.5 °C 1016.9 hPa West 3.2 km/h 4.8 km/h 94% 1.3 mm 0 W/m2
06:11 2.3 °C 1.4 °C 1016.9 hPa West 4.7 km/h 9.7 km/h 94% 1.3 mm 0 W/m2
06:16 2.3 °C 1.4 °C 1016.9 hPa West 4.7 km/h 6.4 km/h 94% 1.5 mm 0 W/m2
06:21 2.3 °C 1.4 °C 1016.9 hPa West 4.7 km/h 9.7 km/h 94% 1.5 mm 0 W/m2
06:26 2.4 °C 1.5 °C 1016.9 hPa WNW 1.4 km/h 1.6 km/h 94% 1.5 mm 0 W/m2
06:31 2.4 °C 1.5 °C 1016.9 hPa WNW 1.4 km/h 3.2 km/h 94% 1.5 mm 0 W/m2
06:36 2.3 °C 1.4 °C 1016.9 hPa WNW 3.2 km/h 4.8 km/h 94% 1.5 mm 0 W/m2
06:41 2.3 °C 1.4 °C 1016.9 hPa WSW 1.4 km/h 3.2 km/h 94% 1.5 mm 0 W/m2
06:46 2.3 °C 1.4 °C 1016.9 hPa WSW 1.4 km/h 1.6 km/h 94% 1.5 mm 0 W/m2
06:51 2.2 °C 1.3 °C 1016.9 hPa NW 3.2 km/h 3.2 km/h 94% 1.5 mm 0 W/m2
06:56 2.2 °C 1.3 °C 1016.9 hPa WNW 1.4 km/h 4.8 km/h 94% 1.5 mm 0 W/m2
07:01 2.1 °C 1.2 °C 1016.9 hPa West 3.2 km/h 4.8 km/h 94% 1.5 mm 0 W/m2
07:11 2 °C 1.3 °C 1016.9 hPa WNW 1.4 km/h 4.8 km/h 95% 1.5 mm 0 W/m2
07:17 1.9 °C 1.2 °C 1016.9 hPa WNW 1.4 km/h 3.2 km/h 95% 1.5 mm 0 W/m2
07:22 1.9 °C 1.2 °C 1016.9 hPa Calm   4.8 km/h 95% 1.8 mm 0 W/m2
07:27 1.9 °C 1.2 °C 1016.9 hPa Calm     95% 1.5 mm 0 W/m2
07:32 1.8 °C 1.1 °C 1017.3 hPa WNW 1.4 km/h 3.2 km/h 95% 1.5 mm 0 W/m2
07:37 1.8 °C 1.1 °C 1017.3 hPa Calm     95% 1.5 mm 0 W/m2
07:42 1.8 °C 1.1 °C 1017.3 hPa Calm     95% 1.5 mm 0 W/m2
07:47 1.7 °C 1 °C 1017.3 hPa Calm   1.6 km/h 95% 1.5 mm 0 W/m2
07:52 1.7 °C 1 °C 1017.3 hPa WNW 1.4 km/h 1.6 km/h 95% 1.5 mm 0 W/m2
07:57 1.6 °C 0.9 °C 1017.3 hPa Calm   1.6 km/h 95% 1.5 mm 0 W/m2
08:02 1.6 °C 0.9 °C 1017.3 hPa Calm     95% 1.5 mm 0 W/m2
08:07 1.5 °C 0.8 °C 1017.3 hPa Calm   1.6 km/h 95% 1.5 mm 0 W/m2
08:12 1.5 °C 0.8 °C 1017.3 hPa Calm   1.6 km/h 95% 1.5 mm 0 W/m2
08:17 1.4 °C 0.7 °C 1017.3 hPa Calm     95% 1.3 mm 0 W/m2
08:22 1.4 °C 0.7 °C 1017.6 hPa Calm     95% 1.0 mm 0 W/m2
08:27 1.3 °C 0.6 °C 1017.6 hPa Calm     95% 1.3 mm 0 W/m2
08:32 1.3 °C 0.6 °C 1017.6 hPa Calm     95% 1.3 mm 0 W/m2
08:37 1.3 °C 0.6 °C 1017.6 hPa Calm     95% 1.3 mm 0 W/m2
08:42 1.3 °C 0.6 °C 1017.6 hPa Calm     95% 1.0 mm 0 W/m2
08:47 1.2 °C 0.5 °C 1017.6 hPa Calm     95% 1.3 mm 0 W/m2
08:52 1.2 °C 0.6 °C 1017.6 hPa Calm     96% 1.3 mm 5 W/m2
08:57 1.2 °C 0.6 °C 1017.6 hPa Calm     96% 1.3 mm 5 W/m2
09:02 1.2 °C 0.5 °C 1017.6 hPa Calm     95% 1.0 mm 9 W/m2
09:07 1.2 °C 0.5 °C 1017.6 hPa Calm     95% 1.0 mm 11 W/m2
09:12 1.1 °C 0.5 °C 1017.6 hPa Calm     96% 1.0 mm 12 W/m2
09:17 1.1 °C 0.5 °C 1017.6 hPa Calm     96% 1.0 mm 12 W/m2
09:22 1.1 °C 0.5 °C 1018.0 hPa Calm     96% 1.0 mm 14 W/m2
09:27 1.1 °C 0.5 °C 1018.0 hPa Calm     96% 0.8 mm 12 W/m2
09:32 1.1 °C 0.5 °C 1018.0 hPa Calm     96% 0.5 mm 11 W/m2
09:37 1 °C 0.4 °C 1018.0 hPa Calm     96% 0.5 mm 12 W/m2
09:42 1 °C 0.4 °C 1018.0 hPa Calm     96% 0.5 mm 12 W/m2
09:47 0.9 °C 0.3 °C 1018.0 hPa Calm     96% 0.5 mm 11 W/m2
09:52 0.8 °C 0.2 °C 1018.3 hPa Calm     96% 0.5 mm 12 W/m2
09:57 0.8 °C 0.2 °C 1018.0 hPa Calm     96% 0.5 mm 14 W/m2
10:02 0.8 °C 0.2 °C 1018.3 hPa Calm     96% 0.5 mm 11 W/m2
10:07 0.7 °C 0.1 °C 1018.3 hPa Calm     96% 0.5 mm 11 W/m2
10:12 0.7 °C 0.1 °C 1018.3 hPa Calm     96% 0.2 mm 12 W/m2
10:17 0.7 °C 0.1 °C 1018.3 hPa Calm     96% 0.2 mm 9 W/m2
10:22 0.6 °C 0 °C 1018.3 hPa Calm     96% 0.2 mm 9 W/m2
10:27 0.6 °C 0 °C 1018.6 hPa Calm     96% 0.2 mm 11 W/m2
10:32 0.6 °C 0 °C 1018.6 hPa Calm     96% 0.2 mm 14 W/m2
10:37 0.6 °C 0 °C 1018.6 hPa Calm     96% 0.2 mm 18 W/m2
10:42 0.6 °C 0 °C 1018.6 hPa Calm     96% 0.2 mm 18 W/m2
10:47 0.6 °C 0 °C 1018.6 hPa Calm     96% 0.0 mm 16 W/m2
10:52 0.6 °C 0 °C 1018.6 hPa Calm     96% 0.0 mm 12 W/m2
10:57 0.6 °C 0 °C 1018.6 hPa Calm     96% 0.0 mm 14 W/m2
11:02 0.7 °C 0.1 °C 1019.0 hPa Calm     96% 0.0 mm 18 W/m2
11:07 0.7 °C 0.1 °C 1018.6 hPa Calm   1.6 km/h 96% 0.0 mm 16 W/m2
11:12 0.7 °C 0.1 °C 1018.6 hPa Calm     96% 0.0 mm 19 W/m2
11:17 0.7 °C 0.1 °C 1019.0 hPa Calm   1.6 km/h 96% 0.0 mm 14 W/m2
11:22 0.7 °C 0.1 °C 1018.6 hPa Calm     96% 0.0 mm 18 W/m2
11:27 0.7 °C 0.1 °C 1019.0 hPa ENE 1.4 km/h 3.2 km/h 96% 0.0 mm 18 W/m2
11:32 0.6 °C 0 °C 1019.0 hPa Calm   3.2 km/h 96% 0.0 mm 14 W/m2
11:37 0.6 °C 0 °C 1019.0 hPa Calm     96% 0.0 mm 11 W/m2
11:42 0.6 °C 0 °C 1019.0 hPa Calm   3.2 km/h 96% 0.0 mm 11 W/m2
11:47 0.6 °C 0 °C 1018.6 hPa East 1.4 km/h 3.2 km/h 96% 0.0 mm 12 W/m2
11:52 0.6 °C 0 °C 1018.6 hPa Calm   1.6 km/h 96% 0.0 mm 11 W/m2
11:57 0.6 °C 0 °C 1018.6 hPa Calm     96% 0.0 mm 12 W/m2
12:02 0.6 °C 0 °C 1018.6 hPa East 1.4 km/h 3.2 km/h 96% 0.0 mm 12 W/m2
12:07 0.6 °C 0 °C 1018.6 hPa East 1.4 km/h 4.8 km/h 96% 0.0 mm 9 W/m2
12:12 0.6 °C 0 °C 1018.6 hPa Calm     96% 0.0 mm 14 W/m2
12:17 0.6 °C 0 °C 1018.6 hPa ENE 3.2 km/h 4.8 km/h 96% 0.0 mm 14 W/m2
12:22 0.6 °C 0 °C 1018.6 hPa East 1.4 km/h 4.8 km/h 96% 0.0 mm 14 W/m2
12:27 0.6 °C 0 °C 1018.6 hPa Calm   3.2 km/h 96% 0.0 mm 12 W/m2
12:32 0.6 °C 0 °C 1018.6 hPa East 1.4 km/h 3.2 km/h 96% 0.0 mm 14 W/m2
12:37 0.6 °C 0 °C 1018.6 hPa East 1.4 km/h 1.6 km/h 96% 0.0 mm 14 W/m2
12:42 0.6 °C 0 °C 1018.3 hPa ESE 4.7 km/h 4.8 km/h 96% 0.0 mm 16 W/m2
12:47 0.6 °C 0 °C 1018.3 hPa East 3.2 km/h 4.8 km/h 96% 0.0 mm 19 W/m2
12:52 0.6 °C 0 °C 1018.3 hPa East 1.4 km/h 3.2 km/h 96% 0.0 mm 16 W/m2
12:57 0.6 °C 0 °C 1018.3 hPa East 3.2 km/h 3.2 km/h 96% 0.0 mm 18 W/m2
13:02 0.6 °C 0 °C 1018.3 hPa East 1.4 km/h 4.8 km/h 96% 0.0 mm 18 W/m2
13:07 0.6 °C 0 °C 1018.3 hPa East 1.4 km/h 4.8 km/h 96% 0.2 mm 14 W/m2
13:12 0.6 °C 0 °C 1018.3 hPa ESE 1.4 km/h 3.2 km/h 96% 0.2 mm 16 W/m2
13:17 0.6 °C 0 °C 1018.0 hPa ESE 3.2 km/h 4.8 km/h 96% 0.2 mm 21 W/m2
13:22 0.6 °C 0 °C 1018.0 hPa ESE 1.4 km/h 1.6 km/h 96% 0.2 mm 26 W/m2
13:27 0.6 °C 0 °C 1018.0 hPa ESE 1.4 km/h 3.2 km/h 96% 0.2 mm 25 W/m2
13:32 0.6 °C 0 °C 1018.0 hPa Calm   3.2 km/h 96% 0.2 mm 25 W/m2
13:37 0.7 °C 0.1 °C 1018.0 hPa Calm   3.2 km/h 96% 0.5 mm 26 W/m2
13:42 0.7 °C 0.1 °C 1018.0 hPa East 1.4 km/h 3.2 km/h 96% 0.5 mm 26 W/m2
13:47 0.7 °C 0.1 °C 1017.6 hPa East 3.2 km/h 3.2 km/h 96% 0.5 mm 30 W/m2
13:52 0.8 °C 0.2 °C 1017.6 hPa ENE 4.7 km/h 4.8 km/h 96% 0.5 mm 25 W/m2
13:57 0.8 °C 0.2 °C 1017.6 hPa East 3.2 km/h 6.4 km/h 96% 0.5 mm 21 W/m2
14:02 0.8 °C 0.2 °C 1017.6 hPa East 3.2 km/h 12.9 km/h 96% 0.5 mm 19 W/m2
14:07 0.6 °C 0 °C 1017.6 hPa ESE 3.2 km/h 8 km/h 96% 0.5 mm 16 W/m2
14:12 0.5 °C -0.1 °C 1017.6 hPa ESE 4.7 km/h 11.3 km/h 96% 0.5 mm 30 W/m2
14:17 0.4 °C -0.2 °C 1017.6 hPa ESE 3.2 km/h 3.2 km/h 96% 0.5 mm 30 W/m2
14:22 0.4 °C -0.2 °C 1017.3 hPa East 4.7 km/h 4.8 km/h 96% 0.5 mm 25 W/m2
14:27 0.4 °C -0.2 °C 1017.3 hPa Calm   6.4 km/h 96% 0.8 mm 23 W/m2
14:32 0.4 °C -0.2 °C 1017.3 hPa East 3.2 km/h 6.4 km/h 96% 0.8 mm 18 W/m2
14:37 0.4 °C -0.2 °C 1017.3 hPa East 1.4 km/h 3.2 km/h 96% 0.5 mm 12 W/m2
14:42 0.4 °C -0.2 °C 1017.3 hPa East 1.4 km/h 6.4 km/h 96% 0.5 mm 11 W/m2
14:47 0.4 °C -0.2 °C 1016.9 hPa Calm   3.2 km/h 96% 0.5 mm 11 W/m2
14:52 0.4 °C -0.2 °C 1016.9 hPa East 4.8 km/h 4.8 km/h 96% 0.5 mm 9 W/m2
14:57 0.4 °C -0.2 °C 1016.9 hPa Calm   1.6 km/h 96% 0.5 mm 7 W/m2
15:02 0.4 °C -0.2 °C 1016.9 hPa Calm   1.6 km/h 96% 0.5 mm 5 W/m2
15:07 0.4 °C -0.2 °C 1016.9 hPa Calm   3.2 km/h 96% 0.5 mm 7 W/m2
15:12 0.4 °C -0.2 °C 1016.9 hPa East 1.4 km/h 3.2 km/h 96% 0.5 mm 5 W/m2
15:17 0.3 °C -0.3 °C 1016.9 hPa Calm   3.2 km/h 96% 0.5 mm 5 W/m2
15:22 0.3 °C -0.3 °C 1016.9 hPa East 3.2 km/h 3.2 km/h 96% 0.5 mm 5 W/m2
15:27 0.3 °C -0.3 °C 1016.9 hPa ESE 1.4 km/h 4.8 km/h 96% 0.2 mm 9 W/m2
15:32 0.3 °C -0.3 °C 1016.9 hPa ESE 3.2 km/h 4.8 km/h 96% 0.2 mm 7 W/m2
15:37 0.3 °C -0.3 °C 1016.9 hPa ESE 3.2 km/h 4.8 km/h 96% 0.2 mm 7 W/m2
15:42 0.2 °C -0.4 °C 1016.9 hPa ESE 3.2 km/h 4.8 km/h 96% 0.5 mm 9 W/m2
15:47 0.2 °C -0.4 °C 1016.9 hPa ESE 3.2 km/h 4.8 km/h 96% 0.5 mm 9 W/m2
15:52 0.1 °C -0.5 °C 1016.6 hPa ESE 4.7 km/h 4.8 km/h 96% 0.2 mm 7 W/m2
15:57 0.1 °C -0.5 °C 1016.6 hPa East 3.2 km/h 6.4 km/h 96% 0.2 mm 5 W/m2
16:02 0.1 °C -0.5 °C 1016.6 hPa Calm   4.8 km/h 96% 0.2 mm 5 W/m2
16:07 0.1 °C -0.5 °C 1016.6 hPa ENE 3.2 km/h 4.8 km/h 96% 0.2 mm 5 W/m2
16:12 0.1 °C -0.5 °C 1016.6 hPa ENE 3.2 km/h 6.4 km/h 96% 0.2 mm 5 W/m2
16:17 0 °C -0.6 °C 1016.6 hPa ESE 1.4 km/h 6.4 km/h 96% 0.2 mm 5 W/m2
16:22 0 °C -0.6 °C 1016.6 hPa ESE 1.4 km/h 4.8 km/h 96% 0.2 mm 0 W/m2
16:27 0 °C -0.6 °C 1016.6 hPa East 1.4 km/h 4.8 km/h 96% 0.2 mm 0 W/m2
16:32 0 °C -0.6 °C 1016.6 hPa East 1.4 km/h 4.8 km/h 96% 0.2 mm 0 W/m2
16:37 0 °C -0.6 °C 1016.3 hPa Calm   3.2 km/h 96% 0.2 mm 0 W/m2
16:42 0 °C -0.6 °C 1016.6 hPa East 1.4 km/h 4.8 km/h 96% 0.0 mm 0 W/m2
16:47 -0.1 °C -0.7 °C 1016.3 hPa East 3.2 km/h 4.8 km/h 96% 0.0 mm 0 W/m2
16:52 -0.1 °C -0.5 °C 1016.3 hPa East 4.7 km/h 6.4 km/h 97% 0.0 mm 0 W/m2
16:57 -0.1 °C -0.5 °C 1016.3 hPa East 1.4 km/h 4.8 km/h 97% 0.0 mm 0 W/m2
17:02 -0.1 °C -0.7 °C 1016.3 hPa ESE 4.7 km/h 4.8 km/h 96% 0.2 mm 0 W/m2
17:07 -0.1 °C -0.7 °C 1016.3 hPa ENE 3.2 km/h 4.8 km/h 96% 0.2 mm 0 W/m2
17:12 -0.1 °C -0.7 °C 1016.3 hPa Calm   6.4 km/h 96% 0.2 mm 0 W/m2
17:17 -0.1 °C -0.7 °C 1016.3 hPa ESE 1.4 km/h 4.8 km/h 96% 0.2 mm 0 W/m2
17:22 -0.1 °C -0.7 °C 1015.9 hPa East 1.4 km/h 4.8 km/h 96% 0.2 mm 0 W/m2
17:27 -0.1 °C -0.7 °C 1016.3 hPa East 1.4 km/h 4.8 km/h 96% 0.2 mm 0 W/m2
17:32 -0.1 °C -0.7 °C 1016.3 hPa East 1.4 km/h 6.4 km/h 96% 0.2 mm 0 W/m2
17:37 -0.1 °C -0.7 °C 1015.9 hPa East 1.4 km/h 3.2 km/h 96% 0.2 mm 0 W/m2
17:42 -0.1 °C -0.7 °C 1015.9 hPa East 1.4 km/h 6.4 km/h 96% 0.2 mm 0 W/m2
17:47 -0.1 °C -0.7 °C 1015.9 hPa East 1.4 km/h 3.2 km/h 96% 0.2 mm 0 W/m2
17:52 -0.1 °C -0.7 °C 1015.9 hPa ENE 1.4 km/h 3.2 km/h 96% 0.2 mm 0 W/m2
17:57 -0.1 °C -0.7 °C 1015.9 hPa East 1.4 km/h 4.8 km/h 96% 0.2 mm 0 W/m2
18:07 -0.1 °C -0.7 °C 1015.6 hPa East 1.4 km/h 1.6 km/h 96% 0.0 mm 0 W/m2
18:12 -0.1 °C -0.7 °C 1015.6 hPa East 3.2 km/h 3.2 km/h 96% 0.0 mm 0 W/m2
18:17 -0.1 °C -0.7 °C 1015.6 hPa East 1.4 km/h 3.2 km/h 96% 0.0 mm 0 W/m2
18:22 -0.1 °C -0.5 °C 1015.6 hPa East 1.4 km/h 3.2 km/h 97% 0.0 mm 0 W/m2
18:27 -0.1 °C -0.5 °C 1015.2 hPa Calm     97% 0.0 mm 0 W/m2
18:33 -0.1 °C -0.5 °C 1015.2 hPa Calm     97% 0.0 mm 0 W/m2
18:38 -0.1 °C -0.5 °C 1015.2 hPa Calm     97% 0.2 mm 0 W/m2
18:43 -0.1 °C -0.5 °C 1015.2 hPa Calm     97% 0.2 mm 0 W/m2
18:48 -0.1 °C -0.5 °C 1015.2 hPa Calm     97% 0.2 mm 0 W/m2
18:53 -0.1 °C -0.5 °C 1015.2 hPa Calm     97% 0.2 mm 0 W/m2
18:58 -0.1 °C -0.5 °C 1015.2 hPa Calm     97% 0.2 mm 0 W/m2
19:03 -0.1 °C -0.5 °C 1014.9 hPa Calm     97% 0.2 mm 0 W/m2
19:08 -0.1 °C -0.5 °C 1014.9 hPa Calm     97% 0.2 mm 0 W/m2
19:13 -0.1 °C -0.5 °C 1014.9 hPa Calm     97% 0.2 mm 0 W/m2
19:18 -0.1 °C -0.5 °C 1014.9 hPa Calm     97% 0.2 mm 0 W/m2
19:23 -0.1 °C -0.5 °C 1014.9 hPa Calm     97% 0.2 mm 0 W/m2
19:28 -0.1 °C -0.5 °C 1014.9 hPa Calm     97% 0.2 mm 0 W/m2
19:33 -0.1 °C -0.5 °C 1014.6 hPa Calm     97% 0.2 mm 0 W/m2
19:43 -0.1 °C -0.5 °C 1014.6 hPa Calm     97% 0.0 mm 0 W/m2
19:48 -0.1 °C -0.5 °C 1014.6 hPa Calm     97% 0.0 mm 0 W/m2
19:53 -0.2 °C -0.6 °C 1014.6 hPa Calm     97% 0.0 mm 0 W/m2
19:58 -0.2 °C -0.6 °C 1014.6 hPa Calm     97% 0.0 mm 0 W/m2
20:03 -0.2 °C -0.6 °C 1014.6 hPa Calm     97% 0.0 mm 0 W/m2
20:08 -0.2 °C -0.6 °C 1014.6 hPa Calm     97% 0.0 mm 0 W/m2
20:13 -0.2 °C -0.6 °C 1014.6 hPa Calm     97% 0.0 mm 0 W/m2
20:18 -0.2 °C -0.6 °C 1014.2 hPa Calm     97% 0.0 mm 0 W/m2
20:23 -0.2 °C -0.6 °C 1014.2 hPa Calm     97% 0.0 mm 0 W/m2
20:28 -0.2 °C -0.6 °C 1014.2 hPa Calm     97% 0.0 mm 0 W/m2
20:33 -0.2 °C -0.6 °C 1014.2 hPa Calm     97% 0.0 mm 0 W/m2
20:38 -0.2 °C -0.6 °C 1014.2 hPa Calm     97% 0.0 mm 0 W/m2
20:43 -0.2 °C -0.6 °C 1014.2 hPa Calm     97% 0.0 mm 0 W/m2
20:48 -0.1 °C -0.5 °C 1014.2 hPa Calm     97% 0.0 mm 0 W/m2
20:53 -0.1 °C -0.5 °C 1014.2 hPa Calm     97% 0.0 mm 0 W/m2
20:58 -0.1 °C -0.5 °C 1014.2 hPa Calm     97% 0.0 mm 0 W/m2
21:03 -0.1 °C -0.5 °C 1014.2 hPa Calm     97% 0.0 mm 0 W/m2
21:08 -0.1 °C -0.5 °C 1014.2 hPa Calm     97% 0.0 mm 0 W/m2
21:13 -0.1 °C -0.5 °C 1014.2 hPa Calm     97% 0.0 mm 0 W/m2
21:18 -0.1 °C -0.5 °C 1014.2 hPa Calm     97% 0.0 mm 0 W/m2
21:23 0 °C -0.4 °C 1014.2 hPa Calm     97% 0.0 mm 0 W/m2
21:28 0 °C -0.4 °C 1014.2 hPa Calm     97% 0.0 mm 0 W/m2
21:33 0 °C -0.4 °C 1014.2 hPa Calm     97% 0.0 mm 0 W/m2
21:38 0 °C -0.4 °C 1014.2 hPa Calm     97% 0.0 mm 0 W/m2
21:43 0 °C -0.4 °C 1014.2 hPa Calm     97% 0.0 mm 0 W/m2
21:48 -0.1 °C -0.5 °C 1014.2 hPa Calm     97% 0.0 mm 0 W/m2
21:53 -0.1 °C -0.5 °C 1014.2 hPa Calm     97% 0.0 mm 0 W/m2
21:58 -0.1 °C -0.5 °C 1014.6 hPa Calm     97% 0.0 mm 0 W/m2
22:03 -0.1 °C -0.5 °C 1014.2 hPa Calm     97% 0.0 mm 0 W/m2
22:08 -0.1 °C -0.5 °C 1014.6 hPa Calm     97% 0.0 mm 0 W/m2
22:13 -0.1 °C -0.5 °C 1014.6 hPa Calm     97% 0.0 mm 0 W/m2
22:18 -0.1 °C -0.5 °C 1014.6 hPa Calm     97% 0.0 mm 0 W/m2
22:23 -0.1 °C -0.5 °C 1014.6 hPa Calm     97% 0.0 mm 0 W/m2
22:28 -0.1 °C -0.5 °C 1014.6 hPa Calm     97% 0.0 mm 0 W/m2
22:33 -0.1 °C -0.5 °C 1014.6 hPa Calm     97% 0.0 mm 0 W/m2
22:38 -0.1 °C -0.5 °C 1014.6 hPa Calm     97% 0.0 mm 0 W/m2
22:43 -0.1 °C -0.5 °C 1014.6 hPa Calm     97% 0.0 mm 0 W/m2
22:48 -0.1 °C -0.5 °C 1014.6 hPa Calm     97% 0.0 mm 0 W/m2
22:53 -0.1 °C -0.5 °C 1014.6 hPa Calm     97% 0.0 mm 0 W/m2
22:58 -0.1 °C -0.5 °C 1014.6 hPa Calm     97% 0.0 mm 0 W/m2
23:03 -0.1 °C -0.5 °C 1014.6 hPa Calm     97% 0.0 mm 0 W/m2
23:08 -0.1 °C -0.5 °C 1014.6 hPa Calm     97% 0.0 mm 0 W/m2
23:18 -0.1 °C -0.5 °C 1014.6 hPa Calm     97% 0.0 mm 0 W/m2
23:23 -0.1 °C -0.5 °C 1014.6 hPa Calm     97% 0.0 mm 0 W/m2
23:28 -0.1 °C -0.5 °C 1014.9 hPa Calm     97% 0.0 mm 0 W/m2
23:33 -0.1 °C -0.5 °C 1014.9 hPa Calm     97% 0.0 mm 0 W/m2
23:38 -0.1 °C -0.5 °C 1014.9 hPa Calm     97% 0.0 mm 0 W/m2
23:43 -0.1 °C -0.5 °C 1014.9 hPa Calm     97% 0.0 mm 0 W/m2
23:48 -0.1 °C -0.5 °C 1014.9 hPa Calm     97% 0.0 mm 0 W/m2
23:53 -0.1 °C -0.5 °C 1014.9 hPa Calm     97% 0.2 mm 0 W/m2
23:58 -0.1 °C -0.5 °C 1015.2 hPa Calm     97% 0.2 mm 0 W/m2
Juneau County Weather
Compliments of Weather Underground - 4 mb